Time;durP1;ratioP1;P1;durP2;ratioP2;P2;SDS_P1;SDS_P2;PMS_P1;PMS_P2;Temp;Humidity;BMP_temperature;BMP_pressure;BME280_temperature;BME280_humidity;BME280_pressure;Samples;Min_cycle;Max_cycle;Signal;HPM_P1;HPM_P2
2024/01/26 00:00:33;;;;;;;23.40;16.25;;;;;;;8.90;100.00;102307.56;4995560;28;20129;-75
2024/01/26 00:03:00;;;;;;;21.83;16.35;;;;;;;8.90;100.00;102310.22;4996317;28;20078;-74
2024/01/26 00:05:26;;;;;;;22.58;15.98;;;;;;;8.89;100.00;102293.53;4995391;28;20532;-74
2024/01/26 00:07:53;;;;;;;20.13;15.10;;;;;;;8.90;100.00;102300.38;4995935;28;20047;-74
2024/01/26 00:10:20;;;;;;;22.20;15.70;;;;;;;8.90;100.00;102289.75;4995680;28;20058;-74
2024/01/26 00:12:46;;;;;;;24.30;15.35;;;;;;;8.90;100.00;102295.06;4996142;28;20047;-74
2024/01/26 00:15:14;;;;;;;22.27;15.50;;;;;;;8.89;100.00;102280.25;4995755;28;20154;-74
2024/01/26 00:17:40;;;;;;;21.92;15.80;;;;;;;8.91;100.00;102282.53;4996154;28;20796;-74
2024/01/26 00:20:09;;;;;;;22.40;14.90;;;;;;;8.90;100.00;102271.16;4992772;28;20494;-74
2024/01/26 00:22:35;;;;;;;22.05;15.65;;;;;;;8.91;100.00;102269.25;4995523;28;20051;-74
2024/01/26 00:25:02;;;;;;;18.70;14.48;;;;;;;8.91;100.00;102277.97;4995869;28;20058;-74
2024/01/26 00:27:29;;;;;;;21.23;15.02;;;;;;;8.91;100.00;102279.88;4995283;28;20042;-74
2024/01/26 00:29:55;;;;;;;20.00;14.85;;;;;;;8.90;100.00;102273.81;4995864;28;20039;-74
2024/01/26 00:32:22;;;;;;;23.38;15.35;;;;;;;8.90;100.00;102278.34;4995109;28;20522;-74
2024/01/26 00:34:49;;;;;;;21.60;15.13;;;;;;;8.92;100.00;102289.34;4995886;28;20154;-75
2024/01/26 00:37:15;;;;;;;20.33;14.35;;;;;;;8.92;100.00;102284.03;4995651;28;20044;-74
2024/01/26 00:39:42;;;;;;;21.25;14.48;;;;;;;8.91;100.00;102279.88;4995655;28;20110;-75
2024/01/26 00:42:08;;;;;;;18.60;14.25;;;;;;;8.91;100.00;102277.22;4996129;28;20051;-75
2024/01/26 00:44:36;;;;;;;20.85;14.45;;;;;;;8.91;100.00;102272.66;4994462;28;20082;-75
2024/01/26 00:47:03;;;;;;;18.75;14.40;;;;;;;8.92;100.00;102265.44;4995301;28;20043;-75
2024/01/26 00:49:30;;;;;;;17.65;14.45;;;;;;;8.92;100.00;102262.78;4995458;28;20422;-74
2024/01/26 00:52:11;;;;;;;20.70;14.38;;;;;;;8.91;100.00;102259.38;4991727;28;20110;-74
2024/01/26 00:54:38;;;;;;;20.73;13.70;;;;;;;8.91;100.00;102272.66;4995011;28;20047;-74
2024/01/26 00:57:04;;;;;;;20.70;13.60;;;;;;;8.90;100.00;102265.09;4994865;28;20506;-74
2024/01/26 00:59:31;;;;;;;17.30;13.27;;;;;;;8.91;100.00;102263.94;4995211;28;20049;-74
2024/01/26 01:01:58;;;;;;;16.95;13.48;;;;;;;8.92;100.00;102262.78;4995844;28;20117;-74
2024/01/26 01:04:25;;;;;;;16.75;13.45;;;;;;;8.92;100.00;102260.88;4993974;28;20050;-74
2024/01/26 01:06:55;;;;;;;17.70;12.73;;;;;;;8.93;100.00;102269.63;4995746;28;20105;-74
2024/01/26 01:09:21;;;;;;;17.92;12.57;;;;;;;8.93;100.00;102278.34;4993917;28;20059;-74
2024/01/26 01:11:48;;;;;;;17.42;12.30;;;;;;;8.94;100.00;102265.81;4995508;28;20039;-74
2024/01/26 01:14:18;;;;;;;15.07;11.75;;;;;;;8.94;100.00;102263.16;4995146;28;20125;-74
2024/01/26 01:16:45;;;;;;;15.35;11.20;;;;;;;8.94;100.00;102257.84;4991540;28;20042;-74
2024/01/26 01:19:12;;;;;;;12.68;11.15;;;;;;;8.94;100.00;102258.59;4994321;28;20184;-74
2024/01/26 01:21:40;;;;;;;12.88;10.95;;;;;;;8.95;100.00;102256.69;4995008;28;20856;-74
2024/01/26 01:24:07;;;;;;;14.45;10.35;;;;;;;8.93;100.00;102249.13;4994904;28;20430;-75
2024/01/26 01:26:33;;;;;;;13.77;10.63;;;;;;;8.93;100.00;102235.09;4993496;28;20047;-75
2024/01/26 01:29:00;;;;;;;13.18;10.63;;;;;;;8.93;100.00;102235.84;4995357;28;20073;-75
2024/01/26 01:31:27;;;;;;;12.88;10.27;;;;;;;8.94;100.00;102237.34;4993897;28;20542;-76
2024/01/26 01:33:54;;;;;;;13.48;10.60;;;;;;;8.95;100.00;102230.13;4994974;28;20047;-75
2024/01/26 01:36:20;;;;;;;11.80;10.27;;;;;;;8.96;100.00;102218.38;4994876;28;20043;-74
2024/01/26 01:38:47;;;;;;;14.43;10.13;;;;;;;8.96;100.00;102215.72;4995068;28;20050;-75
2024/01/26 01:41:13;;;;;;;11.98;9.98;;;;;;;8.96;100.00;102218.38;4993845;28;20046;-75
2024/01/26 01:43:40;;;;;;;13.15;10.68;;;;;;;8.95;100.00;102214.97;4994474;28;20506;-75
2024/01/26 01:46:09;;;;;;;12.35;10.32;;;;;;;8.95;100.00;102201.69;4994535;28;20050;-74
2024/01/26 01:48:35;;;;;;;14.45;10.45;;;;;;;8.95;100.00;102201.69;4994778;28;20039;-75
2024/01/26 01:51:04;;;;;;;16.63;10.68;;;;;;;8.97;100.00;102203.94;4995099;28;20054;-75
2024/01/26 01:53:31;;;;;;;16.73;10.02;;;;;;;8.96;100.00;102200.53;4993180;28;20047;-75
2024/01/26 01:55:59;;;;;;;16.00;10.10;;;;;;;8.96;100.00;102208.50;4994563;28;20070;-75
2024/01/26 01:58:27;;;;;;;14.82;10.32;;;;;;;8.97;100.00;102195.97;4993440;28;20502;-75
2024/01/26 02:00:54;;;;;;;12.07;10.48;;;;;;;8.96;100.00;102195.22;4994493;28;20077;-76
2024/01/26 02:03:21;;;;;;;13.10;10.13;;;;;;;8.96;100.00;102189.91;4993883;28;20050;-75
2024/01/26 02:05:48;;;;;;;11.40;9.82;;;;;;;8.97;100.00;102174.72;4994811;28;20046;-75
2024/01/26 02:08:15;;;;;;;10.85;9.30;;;;;;;8.96;100.00;102165.25;4994417;28;20049;-74
2024/01/26 02:10:41;;;;;;;9.60;8.60;;;;;;;8.97;100.00;102159.53;4993105;28;20054;-74
2024/01/26 02:13:08;;;;;;;9.68;8.38;;;;;;;8.98;100.00;102170.94;4993851;28;20781;-74
2024/01/26 02:15:34;;;;;;;9.73;8.48;;;;;;;8.97;100.00;102178.13;4994164;28;20154;-75
2024/01/26 02:18:01;;;;;;;8.70;7.60;;;;;;;8.97;100.00;102175.47;4994286;28;20049;-74
2024/01/26 02:20:27;;;;;;;9.48;7.38;;;;;;;8.98;100.00;102170.94;4993529;28;20126;-74
2024/01/26 02:23:22;;;;;;;8.02;7.28;;;;;;;8.99;100.00;102162.56;4993829;28;20058;-74
2024/01/26 02:25:48;;;;;;;8.02;6.68;;;;;;;8.99;100.00;102151.19;4993516;28;20047;-74
2024/01/26 02:28:15;;;;;;;7.40;6.53;;;;;;;9.00;100.00;102145.47;4994207;28;20090;-75
2024/01/26 02:30:41;;;;;;;6.65;5.93;;;;;;;9.01;100.00;102143.56;4993980;28;20101;-75
2024/01/26 02:33:08;;;;;;;10.60;6.57;;;;;;;9.01;100.00;102141.69;4994186;28;20047;-75
2024/01/26 02:35:35;;;;;;;6.45;5.85;;;;;;;9.01;100.00;102141.69;4992639;28;20046;-74
2024/01/26 02:38:02;;;;;;;6.53;5.70;;;;;;;9.02;100.00;102137.13;4994357;28;20547;-74
2024/01/26 02:40:29;;;;;;;7.18;5.80;;;;;;;9.03;100.00;102147.34;4993357;28;20043;-75
2024/01/26 02:42:56;;;;;;;6.15;5.65;;;;;;;9.05;100.00;102146.19;4993650;28;20051;-75
2024/01/26 02:45:24;;;;;;;6.80;6.10;;;;;;;9.05;100.00;102141.66;4993978;28;20047;-74
2024/01/26 02:47:51;;;;;;;7.22;6.55;;;;;;;9.06;100.00;102124.56;4993591;28;20043;-74
2024/01/26 02:50:18;;;;;;;9.50;6.30;;;;;;;9.07;100.00;102123.41;4993854;28;20047;-75
2024/01/26 02:52:44;;;;;;;8.23;6.88;;;;;;;9.08;100.00;102114.28;4993567;28;20047;-75
2024/01/26 02:55:11;;;;;;;8.02;7.28;;;;;;;9.09;100.00;102113.16;4993417;28;20043;-75
2024/01/26 02:57:38;;;;;;;9.35;7.78;;;;;;;9.10;100.00;102103.28;4993088;28;20053;-75
2024/01/26 03:00:07;;;;;;;9.32;8.32;;;;;;;9.11;100.00;102086.19;4994028;28;20058;-75
2024/01/26 03:02:33;;;;;;;9.48;8.50;;;;;;;9.12;100.00;102075.16;4993248;28;20047;-75
2024/01/26 03:05:00;;;;;;;10.07;8.85;;;;;;;9.12;100.00;102059.22;4994281;28;20053;-75
2024/01/26 03:07:27;;;;;;;13.73;9.88;;;;;;;9.15;100.00;102063.00;4992865;28;20495;-75
2024/01/26 03:09:53;;;;;;;12.48;9.18;;;;;;;9.15;100.00;102068.31;4992857;28;20055;-75
2024/01/26 03:12:20;;;;;;;12.27;10.68;;;;;;;9.14;100.00;102064.13;4993642;28;20142;-75
2024/01/26 03:14:46;;;;;;;13.85;10.80;;;;;;;9.14;100.00;102062.25;4993781;28;20053;-75
2024/01/26 03:17:13;;;;;;;15.98;11.30;;;;;;;9.14;100.00;102075.53;4993746;28;20503;-74
2024/01/26 03:19:39;;;;;;;11.50;10.38;;;;;;;9.14;100.00;102072.88;4992904;28;20106;-74
2024/01/26 03:22:06;;;;;;;14.15;11.25;;;;;;;9.15;100.00;102074.38;4993187;28;20043;-74
2024/01/26 03:24:33;;;;;;;14.00;11.38;;;;;;;9.15;100.00;102071.72;4993206;28;20047;-75
2024/01/26 03:26:59;;;;;;;15.98;11.05;;;;;;;9.17;100.00;102056.13;4975700;28;20051;-75
2024/01/26 03:29:26;;;;;;;15.15;11.23;;;;;;;9.18;100.00;102047.00;4992296;28;20400;-75
2024/01/26 03:31:52;;;;;;;16.27;12.10;;;;;;;9.19;100.00;102045.88;4993826;28;20526;-74
2024/01/26 03:34:19;;;;;;;13.20;11.63;;;;;;;9.20;100.00;102035.97;4993106;28;20043;-75
2024/01/26 03:36:47;;;;;;;13.43;11.23;;;;;;;9.21;100.00;102034.81;4991276;28;20042;-75
2024/01/26 03:39:13;;;;;;;13.00;11.40;;;;;;;9.21;100.00;102030.25;4993464;28;20125;-75
2024/01/26 03:41:40;;;;;;;12.95;10.15;;;;;;;9.22;100.00;102031.00;4992817;28;20053;-75
2024/01/26 03:44:07;;;;;;;13.55;10.77;;;;;;;9.22;100.00;102028.34;4992729;28;20051;-75
2024/01/26 03:46:34;;;;;;;12.48;10.50;;;;;;;9.23;100.00;102017.31;4992672;28;20525;-75
2024/01/26 03:49:03;;;;;;;12.77;10.63;;;;;;;9.26;100.00;102007.81;4993376;28;20047;-75
2024/01/26 03:51:30;;;;;;;10.80;9.70;;;;;;;9.25;100.00;102004.38;4989179;28;20150;-75
2024/01/26 03:53:59;;;;;;;10.02;8.57;;;;;;;9.26;100.00;102002.50;4992758;28;20507;-74
2024/01/26 03:56:26;;;;;;;10.20;9.02;;;;;;;9.26;100.00;101992.59;4992800;28;20497;-74
2024/01/26 03:58:53;;;;;;;12.65;9.05;;;;;;;9.28;100.00;101992.22;4992927;28;20120;-74
2024/01/26 04:01:20;;;;;;;11.23;8.88;;;;;;;9.30;100.00;102009.25;4991842;28;20140;-74
2024/01/26 04:03:48;;;;;;;10.07;8.50;;;;;;;9.30;100.00;101995.97;4993157;28;20082;-74
2024/01/26 04:06:15;;;;;;;10.43;8.18;;;;;;;9.34;100.00;102001.25;4992473;28;20043;-75
2024/01/26 04:08:41;;;;;;;9.93;7.85;;;;;;;9.33;100.00;101997.09;4975269;28;20042;-75
2024/01/26 04:11:08;;;;;;;10.60;7.70;;;;;;;9.34;100.00;101988.72;4992470;28;20047;-75
2024/01/26 04:13:35;;;;;;;8.70;7.72;;;;;;;9.36;100.00;101990.97;4993033;28;20047;-76
2024/01/26 04:16:01;;;;;;;9.05;8.15;;;;;;;9.36;100.00;101988.31;4992848;28;20043;-75
2024/01/26 04:18:27;;;;;;;9.90;8.07;;;;;;;9.38;100.00;101986.00;4992319;28;20047;-74
2024/01/26 04:20:54;;;;;;;10.00;8.35;;;;;;;9.41;100.00;101992.44;4995788;28;20510;-74
2024/01/26 04:23:21;;;;;;;9.13;8.23;;;;;;;9.42;100.00;101992.03;4995431;28;20043;-74
2024/01/26 04:25:47;;;;;;;9.88;8.73;;;;;;;9.44;100.00;101971.13;4994784;28;20125;-75
2024/01/26 04:28:14;;;;;;;9.75;8.75;;;;;;;9.47;100.00;101972.22;4996095;28;20217;-75
2024/01/26 04:30:43;;;;;;;11.38;8.82;;;;;;;9.45;100.00;101951.38;4995679;28;20051;-75
2024/01/26 04:33:09;;;;;;;12.20;9.13;;;;;;;9.47;100.00;101954.38;4995673;28;20039;-75
2024/01/26 04:35:36;;;;;;;10.38;8.18;;;;;;;9.49;100.00;101956.63;4995579;28;20057;-76
2024/01/26 04:38:05;;;;;;;9.75;8.60;;;;;;;9.50;100.00;101940.28;4995863;28;20070;-76
2024/01/26 04:40:32;;;;;;;12.52;8.68;;;;;;;9.51;100.00;101939.13;4995438;28;20134;-76
2024/01/26 04:42:59;;;;;;;10.70;8.38;;;;;;;9.51;100.00;101946.34;4978085;28;20457;-76
2024/01/26 04:45:26;;;;;;;13.02;8.73;;;;;;;9.51;100.00;101933.06;4995273;28;20129;-76
2024/01/26 04:47:52;;;;;;;8.75;7.95;;;;;;;9.53;100.00;101917.47;4995509;28;20035;-77
2024/01/26 04:50:19;;;;;;;11.88;8.57;;;;;;;9.53;100.00;101915.56;4977750;28;20109;-76
2024/01/26 04:52:45;;;;;;;12.02;8.95;;;;;;;9.55;100.00;101920.47;4995048;28;20051;-77
2024/01/26 04:55:12;;;;;;;10.35;8.23;;;;;;;9.56;100.00;101920.06;4995651;28;20043;-76
2024/01/26 04:57:38;;;;;;;9.25;8.32;;;;;;;9.55;100.00;101905.28;4991741;28;20074;-76
2024/01/26 05:00:07;;;;;;;15.55;9.30;;;;;;;9.57;100.00;101904.88;4995283;28;20634;-76
2024/01/26 05:02:34;;;;;;;9.77;8.00;;;;;;;9.57;100.00;101889.66;4977390;28;20047;-76
2024/01/26 05:05:01;;;;;;;12.68;8.95;;;;;;;9.57;100.00;101892.31;4977526;28;20061;-76
2024/01/26 05:07:27;;;;;;;10.50;8.27;;;;;;;9.59;100.00;101884.69;4994796;28;20050;-77
2024/01/26 05:09:54;;;;;;;8.63;7.72;;;;;;;9.60;100.00;101877.44;4977630;28;20051;-77
2024/01/26 05:12:20;;;;;;;12.82;8.30;;;;;;;9.60;100.00;101872.88;4995463;28;20130;-77
2024/01/26 05:14:47;;;;;;;13.60;7.85;;;;;;;9.61;100.00;101870.97;4994827;28;20133;-77
2024/01/26 05:17:14;;;;;;;12.10;7.78;;;;;;;9.62;100.00;101862.59;4995551;28;20122;-78
2024/01/26 05:19:40;;;;;;;10.18;8.75;;;;;;;9.63;100.00;101861.44;4991686;28;20047;-77
2024/01/26 05:22:07;;;;;;;8.68;7.57;;;;;;;9.63;100.00;101860.69;4995946;28;20810;-77
2024/01/26 05:24:33;;;;;;;8.18;7.45;;;;;;;9.63;100.00;101858.03;4977536;28;20486;-77
2024/01/26 05:27:00;;;;;;;13.10;8.05;;;;;;;9.65;100.00;101858.38;4978258;28;20053;-77
2024/01/26 05:29:26;;;;;;;10.82;8.02;;;;;;;9.65;100.00;101856.47;4997411;28;20047;-77
2024/01/26 05:31:53;;;;;;;8.98;7.93;;;;;;;9.67;100.00;101864.03;4998726;28;20134;-77
2024/01/26 05:34:20;;;;;;;8.05;7.18;;;;;;;9.68;100.00;101852.25;5001164;28;20110;-77
2024/01/26 05:36:46;;;;;;;9.82;7.97;;;;;;;9.67;100.00;101846.19;4985037;28;20051;-78
2024/01/26 05:39:13;;;;;;;10.40;7.80;;;;;;;9.67;100.00;101840.13;5005208;28;20034;-76
2024/01/26 05:41:40;;;;;;;11.77;7.68;;;;;;;9.66;100.00;101841.28;4993958;28;20086;-76
2024/01/26 05:44:07;;;;;;;9.82;7.97;;;;;;;9.66;100.00;101836.72;4994645;28;20050;-76
2024/01/26 05:46:33;;;;;;;11.23;7.65;;;;;;;9.66;100.00;101830.63;4994580;28;20050;-75
2024/01/26 05:49:00;;;;;;;9.52;7.22;;;;;;;9.66;100.00;101826.06;4994966;28;20050;-76
2024/01/26 05:51:28;;;;;;;8.68;7.88;;;;;;;9.67;100.00;101824.16;4993703;28;20054;-75
2024/01/26 05:53:55;;;;;;;8.30;7.05;;;;;;;9.64;100.00;101817.75;4994707;28;20179;-75
2024/01/26 05:56:21;;;;;;;8.57;7.30;;;;;;;9.64;100.00;101809.03;4994319;28;20043;-74
2024/01/26 05:58:48;;;;;;;8.32;6.43;;;;;;;9.65;100.00;101813.19;4994698;28;20042;-75
2024/01/26 06:01:15;;;;;;;7.80;6.35;;;;;;;9.63;100.00;101805.59;4977254;28;20137;-75
2024/01/26 06:03:42;;;;;;;7.07;6.45;;;;;;;9.64;100.00;101815.09;4994375;28;20038;-74
2024/01/26 06:06:08;;;;;;;9.40;6.82;;;;;;;9.65;100.00;101818.50;4994675;28;20043;-74
2024/01/26 06:08:41;;;;;;;8.05;5.70;;;;;;;9.63;100.00;101816.25;4976092;28;20463;-75
2024/01/26 06:11:11;;;;;;;6.70;6.07;;;;;;;9.65;100.00;101810.53;4976313;28;20055;-75
2024/01/26 06:13:39;;;;;;;9.20;5.82;;;;;;;9.65;100.00;101813.19;4994439;28;20098;-76
2024/01/26 06:16:06;;;;;;;6.50;5.90;;;;;;;9.64;100.00;101798.38;4993349;28;20047;-76
2024/01/26 06:18:33;;;;;;;6.90;5.97;;;;;;;9.64;100.00;101798.38;4994582;28;20043;-76
2024/01/26 06:21:00;;;;;;;6.07;5.47;;;;;;;9.64;100.00;101791.16;4993123;28;20042;-75
2024/01/26 06:23:27;;;;;;;5.82;5.25;;;;;;;9.63;100.00;101800.28;4994071;28;20046;-75
2024/01/26 06:25:54;;;;;;;6.40;5.38;;;;;;;9.63;100.00;101794.97;4994148;28;20402;-76
2024/01/26 06:28:21;;;;;;;5.93;5.28;;;;;;;9.63;100.00;101802.94;4994147;28;20054;-76
2024/01/26 06:30:47;;;;;;;6.05;5.45;;;;;;;9.64;100.00;101785.84;4993462;28;20130;-75
2024/01/26 06:33:14;;;;;;;4.97;4.68;;;;;;;9.64;100.00;101779.78;4994547;28;20130;-76
2024/01/26 06:35:42;;;;;;;5.63;5.18;;;;;;;9.64;100.00;101791.16;4994747;28;20066;-76
2024/01/26 06:38:09;;;;;;;6.22;5.63;;;;;;;9.64;100.00;101793.81;4994620;28;20043;-76
2024/01/26 06:40:35;;;;;;;5.75;5.05;;;;;;;9.65;100.00;101795.31;4994962;28;20477;-77
2024/01/26 06:43:05;;;;;;;5.22;4.90;;;;;;;9.66;100.00;101801.38;4995487;28;20055;-76
2024/01/26 06:45:33;;;;;;;5.05;4.75;;;;;;;9.66;100.00;101788.84;4995734;28;20727;-75
2024/01/26 06:48:00;;;;;;;5.10;4.70;;;;;;;9.66;100.00;101786.19;4993745;28;20550;-75
2024/01/26 06:50:27;;;;;;;5.85;5.35;;;;;;;9.67;100.00;101777.06;4990667;28;20043;-75
2024/01/26 06:52:53;;;;;;;8.73;5.78;;;;;;;9.68;100.00;101781.22;4994064;28;20118;-76
2024/01/26 06:55:20;;;;;;;5.72;5.22;;;;;;;9.68;100.00;101789.19;4992959;28;20054;-76
2024/01/26 06:57:46;;;;;;;5.93;5.32;;;;;;;9.70;100.00;101783.47;4993975;28;20055;-76
2024/01/26 07:00:13;;;;;;;5.60;5.20;;;;;;;9.72;100.00;101777.75;4993468;28;20134;-76
2024/01/26 07:02:40;;;;;;;6.80;5.57;;;;;;;9.72;100.00;101767.84;4993085;28;20530;-76
2024/01/26 07:05:07;;;;;;;6.00;5.50;;;;;;;9.74;100.00;101754.16;4994183;28;20050;-76
2024/01/26 07:07:34;;;;;;;6.55;6.05;;;;;;;9.74;100.00;101762.13;4993076;28;20758;-74
2024/01/26 07:10:00;;;;;;;5.78;5.28;;;;;;;9.74;100.00;101770.88;4975156;28;20114;-76
2024/01/26 07:12:27;;;;;;;6.00;5.50;;;;;;;9.77;100.00;101769.28;4993211;28;20053;-77
2024/01/26 07:14:53;;;;;;;7.07;6.38;;;;;;;9.80;100.00;101765.81;4990392;28;20050;-76
2024/01/26 07:17:20;;;;;;;6.68;6.10;;;;;;;9.81;100.00;101754.03;4993269;28;20511;-77
2024/01/26 07:19:46;;;;;;;7.38;6.35;;;;;;;9.82;100.00;101763.50;4993822;28;20110;-77
2024/01/26 07:22:13;;;;;;;7.38;6.78;;;;;;;9.82;100.00;101768.81;4992304;28;20043;-77
2024/01/26 07:24:40;;;;;;;6.47;5.97;;;;;;;9.82;100.00;101753.63;4994223;28;20576;-77
2024/01/26 07:27:06;;;;;;;6.63;6.03;;;;;;;9.85;100.00;101770.66;4993689;28;20133;-77
2024/01/26 07:29:33;;;;;;;6.97;6.28;;;;;;;9.86;100.00;101777.50;4993221;28;20050;-77
2024/01/26 07:31:59;;;;;;;7.03;6.43;;;;;;;9.86;100.00;101780.16;4993181;28;20046;-77
2024/01/26 07:34:26;;;;;;;7.00;6.32;;;;;;;9.87;100.00;101763.03;4972189;28;20054;-76
2024/01/26 07:36:57;;;;;;;6.20;5.78;;;;;;;9.87;100.00;101782.41;4989064;28;20145;-76
2024/01/26 07:39:26;;;;;;;7.45;6.78;;;;;;;9.88;100.00;101770.59;4992823;28;20071;-76
2024/01/26 07:41:53;;;;;;;8.02;6.22;;;;;;;9.87;100.00;101782.41;4993914;28;20493;-78
2024/01/26 07:44:20;;;;;;;7.47;6.78;;;;;;;9.90;100.00;101783.50;4992631;28;20055;-78
2024/01/26 07:46:46;;;;;;;7.22;6.63;;;;;;;9.90;100.00;101789.56;4993585;28;20051;-76
2024/01/26 07:49:13;;;;;;;7.43;6.75;;;;;;;9.91;100.00;101787.66;4993407;28;20570;-76
2024/01/26 07:51:40;;;;;;;6.82;6.28;;;;;;;9.92;100.00;101800.53;4993056;28;20111;-75
2024/01/26 07:54:07;;;;;;;7.35;6.65;;;;;;;9.94;100.00;101808.88;4995281;28;20069;-78
2024/01/26 07:56:34;;;;;;;7.57;6.72;;;;;;;9.95;100.00;101814.94;4996577;28;20050;-77
2024/01/26 07:59:01;;;;;;;5.50;5.10;;;;;;;9.97;100.00;101821.34;4996620;28;20102;-77
2024/01/26 08:01:28;;;;;;;7.53;6.82;;;;;;;9.98;100.00;101820.19;4995534;28;20051;-76
2024/01/26 08:03:55;;;;;;;7.68;6.68;;;;;;;10.00;100.00;101825.09;4996949;28;20051;-77
2024/01/26 08:06:21;;;;;;;6.53;5.97;;;;;;;10.00;100.00;101815.19;4994179;28;20493;-76
2024/01/26 08:08:48;;;;;;;7.82;6.50;;;;;;;10.01;100.00;101823.91;4994753;28;20058;-77
2024/01/26 08:11:18;;;;;;;7.53;6.40;;;;;;;10.01;100.00;101819.34;4995725;28;20047;-78
2024/01/26 08:13:45;;;;;;;8.43;6.65;;;;;;;10.03;100.00;101819.69;4995565;28;20050;-76
2024/01/26 08:16:15;;;;;;;7.28;6.57;;;;;;;10.04;100.00;101821.19;4996016;28;20027;-78
2024/01/26 08:18:44;;;;;;;6.25;5.70;;;;;;;10.04;100.00;101815.13;4981315;28;20050;-78
2024/01/26 08:21:12;;;;;;;6.22;5.72;;;;;;;10.06;100.00;101817.38;5000581;28;20045;-79
2024/01/26 08:23:38;;;;;;;6.82;6.13;;;;;;;10.06;100.00;101810.16;5001481;28;20122;-78
2024/01/26 08:26:07;;;;;;;7.95;6.13;;;;;;;10.06;100.00;101810.16;4999271;28;20039;-79
2024/01/26 08:28:36;;;;;;;6.35;5.85;;;;;;;10.08;100.00;101809.75;4998523;28;20054;-78
2024/01/26 08:31:03;;;;;;;8.90;6.72;;;;;;;10.09;100.00;101805.91;4997807;28;20881;-79
2024/01/26 08:33:30;;;;;;;6.00;5.45;;;;;;;10.08;100.00;101802.50;4998796;28;20866;-80
2024/01/26 08:35:57;;;;;;;6.18;5.57;;;;;;;10.08;100.00;101821.13;4982820;28;20046;-80
2024/01/26 08:38:24;;;;;;;6.43;5.28;;;;;;;10.08;100.00;101823.78;4998789;28;20569;-80
2024/01/26 08:40:51;;;;;;;8.38;5.28;;;;;;;10.07;100.00;101827.63;4999248;28;20046;-81
2024/01/26 08:43:17;;;;;;;7.38;5.43;;;;;;;10.07;100.00;101827.63;5001054;28;20042;-80
2024/01/26 08:45:44;;;;;;;4.40;4.00;;;;;;;10.06;100.00;101834.09;5000722;28;20047;-79
2024/01/26 08:48:13;;;;;;;5.00;3.88;;;;;;;10.07;100.00;101816.22;5003287;28;20046;-80
2024/01/26 08:50:40;;;;;;;4.68;4.28;;;;;;;10.07;100.00;101829.53;4998358;28;20499;-81
2024/01/26 08:53:09;;;;;;;4.38;4.07;;;;;;;10.08;100.00;101828.38;4981512;28;20568;-80
2024/01/26 08:55:35;;;;;;;4.35;3.58;;;;;;;10.08;100.00;101847.00;4967665;28;20090;-80
2024/01/26 08:58:02;;;;;;;4.22;3.60;;;;;;;10.08;100.00;101850.41;5001990;28;20102;-80
2024/01/26 09:00:29;;;;;;;4.57;3.10;;;;;;;10.04;100.00;101847.81;5000744;28;20074;-79
2024/01/26 09:02:55;;;;;;;5.55;2.58;;;;;;;10.03;100.00;101864.91;4997114;28;20042;-78
2024/01/26 09:05:22;;;;;;;6.38;1.80;;;;;;;10.00;100.00;101859.66;4993373;28;20051;-74
2024/01/26 09:07:48;;;;;;;3.90;2.08;;;;;;;9.98;100.00;101873.41;4997040;28;20426;-82
2024/01/26 09:10:15;;;;;;;3.55;1.15;;;;;;;9.98;100.00;101899.25;4998565;28;20058;-81
2024/01/26 09:12:45;;;;;;;4.28;1.13;;;;;;;9.91;100.00;101912.66;4999297;28;20131;-80
2024/01/26 09:15:11;;;;;;;5.13;1.67;;;;;;;9.77;100.00;101931.50;4995888;28;20055;-79
2024/01/26 09:17:38;;;;;;;3.42;1.30;;;;;;;9.72;100.00;101947.91;4979118;28;20138;-79
2024/01/26 09:20:05;;;;;;;5.25;1.30;;;;;;;9.64;100.00;101952.59;4995214;28;20053;-77
2024/01/26 09:22:33;;;;;;;9.05;1.92;;;;;;;9.53;100.00;101963.41;4995104;28;20043;-78
2024/01/26 09:24:59;;;;;;;6.05;1.75;;;;;;;9.42;100.00;101994.69;4995554;28;20643;-77
2024/01/26 09:27:26;;;;;;;4.57;1.00;;;;;;;9.16;100.00;102022.00;4994149;28;20801;-77
2024/01/26 09:29:53;;;;;;;4.45;1.05;;;;;;;8.90;100.00;102042.00;4995767;28;20051;-77
2024/01/26 09:32:20;;;;;;;3.60;0.95;;;;;;;8.68;100.00;102047.53;4991604;28;20047;-78
2024/01/26 09:34:47;;;;;;;6.47;1.13;;;;;;;8.54;100.00;102034.41;4994892;28;20047;-77
2024/01/26 09:37:14;;;;;;;3.65;0.57;;;;;;;8.48;100.00;102053.78;4994561;28;20078;-79
2024/01/26 09:39:41;;;;;;;1.20;0.75;;;;;;;8.48;100.00;102059.09;4980500;28;20521;-77
2024/01/26 09:42:09;;;;;;;2.42;0.80;;;;;;;8.41;100.00;102054.59;4994386;28;20137;-77
2024/01/26 09:44:35;;;;;;;6.95;0.98;;;;;;;8.37;100.00;102051.25;4998341;28;20046;-76
2024/01/26 09:47:06;;;;;;;5.93;0.75;;;;;;;8.31;100.00;102058.84;4993730;28;20158;-77
2024/01/26 09:49:33;;;;;;;3.15;0.88;;;;;;;8.29;100.00;102055.81;4994270;28;20043;-77
2024/01/26 09:52:00;;;;;;;2.92;0.80;;;;;;;8.29;100.00;102061.13;5001280;28;20054;-77
2024/01/26 09:54:28;;;;;;;2.35;0.75;;;;;;;8.26;100.00;102053.94;4995713;28;20047;-75
2024/01/26 09:56:57;;;;;;;5.93;1.02;;;;;;;8.22;100.00;102074.44;4993109;28;20043;-76
2024/01/26 09:59:24;;;;;;;5.43;1.35;;;;;;;8.20;100.00;102089.25;4993814;28;20047;-75
2024/01/26 10:01:50;;;;;;;8.93;1.00;;;;;;;8.23;100.00;102105.13;4994167;28;20856;-75
2024/01/26 10:04:17;;;;;;;6.40;1.23;;;;;;;8.21;100.00;102106.66;4993609;28;20046;-74
2024/01/26 10:06:45;;;;;;;3.58;0.90;;;;;;;8.22;100.00;102121.44;4993411;28;20046;-74
2024/01/26 10:09:13;;;;;;;5.50;0.95;;;;;;;8.22;100.00;102132.81;4993516;28;20058;-75
2024/01/26 10:11:40;;;;;;;7.38;1.10;;;;;;;8.22;100.00;102126.75;4993245;28;20038;-75
2024/01/26 10:14:07;;;;;;;6.00;0.98;;;;;;;8.27;100.00;102126.34;4994326;28;20079;-74
2024/01/26 10:16:33;;;;;;;7.57;1.45;;;;;;;8.26;100.00;102135.44;4992821;28;20057;-75
2024/01/26 10:19:00;;;;;;;5.82;1.40;;;;;;;8.26;100.00;102146.06;4994187;28;20039;-75
2024/01/26 10:21:27;;;;;;;7.72;1.80;;;;;;;8.26;100.00;102157.41;4993318;28;20118;-75
2024/01/26 10:23:54;;;;;;;4.03;1.73;;;;;;;8.21;100.00;102173.75;4994273;28;20462;-78
2024/01/26 10:26:21;;;;;;;5.78;1.42;;;;;;;8.19;100.00;102159.34;4976956;28;20055;-74
2024/01/26 10:28:48;;;;;;;14.05;2.78;;;;;;;8.20;100.00;102166.94;4994485;28;20043;-77
2024/01/26 10:31:15;;;;;;;13.23;1.58;;;;;;;8.24;100.00;102191.53;4999032;28;20141;-79
2024/01/26 10:33:45;;;;;;;7.65;1.70;;;;;;;8.23;100.00;102205.94;4984129;28;20058;-79
2024/01/26 10:36:13;;;;;;;8.20;1.38;;;;;;;8.22;100.00;102203.69;5000618;28;20421;-78
2024/01/26 10:38:40;;;;;;;7.20;1.40;;;;;;;8.25;100.00;102216.16;5000294;28;20047;-80
2024/01/26 10:41:17;;;;;;;8.45;1.40;;;;;;;8.24;98.27;102217.31;4979423;28;20592;-77
2024/01/26 10:43:45;;;;;;;8.68;2.15;;;;;;;8.20;96.44;102225.28;4992546;28;20051;-77
2024/01/26 10:46:12;;;;;;;6.05;1.73;;;;;;;8.18;95.70;102238.19;4994020;28;20043;-77
2024/01/26 10:48:40;;;;;;;6.97;1.33;;;;;;;8.19;95.58;102257.50;4998453;28;20874;-78
2024/01/26 10:51:06;;;;;;;5.80;1.10;;;;;;;8.20;95.13;102246.50;5002137;28;20129;-77
2024/01/26 10:53:34;;;;;;;4.40;1.13;;;;;;;8.18;95.01;102291.22;5001459;28;20057;-78
2024/01/26 10:56:03;;;;;;;6.05;1.75;;;;;;;8.20;94.21;102274.94;4984773;28;20106;-78
2024/01/26 10:58:30;;;;;;;6.88;1.48;;;;;;;8.20;93.75;102282.91;4982493;28;20357;-77
2024/01/26 11:00:57;;;;;;;7.07;1.02;;;;;;;8.22;92.96;102286.69;4999762;28;20087;-80
2024/01/26 11:03:27;;;;;;;12.00;1.63;;;;;;;8.22;91.54;102288.56;5005560;28;20101;-78
2024/01/26 11:05:55;;;;;;;7.72;1.27;;;;;;;8.20;92.16;102290.84;5003024;28;20167;-79
2024/01/26 11:08:25;;;;;;;6.82;1.60;;;;;;;8.19;90.90;102316.63;5002022;28;20915;-77
2024/01/26 11:10:54;;;;;;;13.23;1.50;;;;;;;8.18;91.49;102315.09;5000594;28;20102;-77
2024/01/26 11:13:22;;;;;;;9.27;1.42;;;;;;;8.17;90.84;102318.91;4993232;28;20554;-78
2024/01/26 11:15:49;;;;;;;5.00;1.40;;;;;;;8.21;90.72;102318.91;4993343;28;20057;-78
2024/01/26 11:18:36;;;;;;;10.75;1.70;;;;;;;8.24;89.75;102326.84;4975076;28;20074;-79